Terminal Aerodrome Forecast
Issued by NWS Huntsville, AL

Home | Current Version | Previous Version | Text Only | Print | Product List | Glossary On
Versions: 1 2 3 4 5 6 7 8 9 10 11 12 13 14 15 16 17 18 19 20 21 22 23 24 25 26 27 28 29 30 31
000
FTUS44 KHUN 032324
TAFMSL
TAF
KMSL 032324Z 0400/0424 19005KT P6SM VCSH BKN050
     FM040400 21008KT P6SM OVC030
     FM040800 22008KT P6SM -SHRA OVC015
     FM041700 25007KT P6SM OVC050=

USA.gov is the U.S. government's official web portal to all federal, state and local government web resources and services.